createdAt,value
2022-10-04T06:00:19.954Z,1.90
2022-10-04T06:03:32.581Z,2.20
2022-10-04T06:06:39.929Z,2.20
2022-10-04T06:09:41.901Z,1.80
2022-10-04T06:12:44.434Z,2.70
2022-10-04T06:15:56.616Z,2.50
2022-10-04T06:19:02.924Z,3.30
2022-10-04T06:22:17.468Z,3.10
2022-10-04T06:25:13.750Z,2.90
2022-10-04T06:27:54.303Z,2.40
2022-10-04T06:30:23.184Z,2.60
2022-10-04T06:33:20.158Z,2.50
2022-10-04T06:35:56.409Z,2.70
2022-10-04T06:38:39.480Z,3.10
2022-10-04T06:41:42.531Z,4.60
2022-10-04T06:44:46.443Z,3.20
2022-10-04T06:47:27.274Z,3.10
2022-10-04T06:50:05.943Z,2.90
2022-10-04T06:53:02.488Z,2.30
2022-10-04T06:55:56.136Z,2.70
2022-10-04T06:59:18.989Z,2.80
2022-10-04T07:02:04.039Z,2.60
2022-10-04T07:05:09.104Z,2.90
2022-10-04T07:07:45.341Z,2.40
2022-10-04T07:10:51.579Z,1.60
2022-10-04T07:13:40.526Z,4.00
2022-10-04T07:16:34.690Z,3.10
2022-10-04T07:19:11.623Z,2.70
2022-10-04T07:22:12.384Z,1.70
2022-10-04T07:25:05.995Z,2.90
2022-10-04T07:28:19.170Z,2.70
2022-10-04T07:30:59.495Z,2.00
2022-10-04T07:33:32.770Z,1.70
2022-10-04T07:36:13.609Z,3.40
2022-10-04T07:38:52.253Z,2.00
2022-10-04T07:41:35.545Z,2.40
2022-10-04T07:44:33.365Z,3.00
2022-10-04T07:47:27.006Z,3.40
2022-10-04T07:49:58.334Z,2.40
2022-10-04T07:53:13.317Z,4.00
2022-10-04T07:56:11.724Z,3.80
2022-10-04T07:59:07.920Z,3.80
2022-10-04T08:01:58.283Z,5.10
2022-10-04T08:04:59.064Z,3.10
2022-10-04T08:08:08.650Z,2.80
2022-10-04T08:10:57.449Z,2.70
2022-10-04T08:13:58.821Z,4.70
2022-10-04T08:16:31.532Z,3.70
2022-10-04T08:19:30.147Z,3.50
2022-10-04T08:22:49.666Z,4.70
2022-10-04T08:25:42.856Z,3.40
2022-10-04T08:29:01.846Z,4.10
2022-10-04T08:31:56.013Z,2.90
2022-10-04T08:34:46.751Z,3.30
2022-10-04T08:37:33.636Z,2.30
2022-10-04T08:40:41.402Z,4.70
2022-10-04T08:43:50.733Z,3.20
2022-10-04T08:46:55.801Z,3.20
2022-10-04T08:49:58.239Z,3.20
2022-10-04T08:52:57.037Z,3.30
2022-10-04T08:55:52.865Z,3.90
2022-10-04T08:59:03.149Z,2.90
2022-10-04T09:01:53.545Z,3.40
2022-10-04T09:04:49.726Z,3.80
2022-10-04T09:07:59.266Z,3.60
2022-10-04T09:11:21.826Z,2.90
2022-10-04T09:14:10.957Z,2.60
2022-10-04T09:17:36.783Z,2.60
2022-10-04T09:20:39.805Z,2.80
2022-10-04T09:23:32.410Z,3.20
2022-10-04T09:26:28.930Z,2.70
2022-10-04T09:29:15.738Z,3.40
2022-10-04T09:32:11.826Z,3.10
2022-10-04T09:35:47.735Z,2.70
2022-10-04T09:39:17.918Z,3.40
2022-10-04T09:42:25.223Z,2.30
2022-10-04T09:45:24.650Z,2.40
2022-10-04T09:48:08.702Z,3.10
2022-10-04T09:51:25.613Z,2.60
2022-10-04T09:54:29.793Z,2.90
2022-10-04T09:57:30.564Z,3.10
2022-10-04T10:00:40.577Z,2.50
2022-10-04T10:04:04.669Z,2.40
2022-10-04T10:07:09.467Z,3.00
2022-10-04T10:10:22.501Z,2.40
2022-10-04T10:13:40.100Z,3.10
2022-10-04T10:16:51.522Z,2.10
2022-10-04T10:19:54.343Z,2.50
2022-10-04T10:23:00.381Z,2.40
2022-10-04T10:25:54.821Z,2.50
2022-10-04T10:28:36.248Z,2.10
2022-10-04T10:32:05.813Z,1.60
2022-10-04T10:35:09.009Z,3.00
2022-10-04T10:38:08.217Z,2.00
2022-10-04T10:44:15.153Z,1.60
2022-10-04T10:47:03.589Z,2.50
2022-10-04T10:50:04.993Z,2.10
2022-10-04T10:52:36.456Z,1.60
2022-10-04T10:56:05.007Z,1.80
2022-10-04T10:58:54.346Z,2.50
2022-10-04T11:02:10.561Z,2.30
2022-10-04T11:04:54.952Z,1.90
2022-10-04T11:07:42.342Z,1.80
2022-10-04T11:10:52.046Z,1.90
2022-10-04T11:13:58.080Z,1.80
2022-10-04T11:17:14.385Z,2.00
2022-10-04T11:20:26.611Z,1.70
2022-10-04T11:23:52.194Z,2.30
2022-10-04T11:27:16.566Z,1.70
2022-10-04T11:29:55.598Z,2.90
2022-10-04T11:33:03.888Z,1.30
2022-10-04T11:36:21.785Z,1.80
2022-10-04T11:39:03.054Z,1.40
2022-10-04T11:41:43.355Z,1.70
2022-10-04T11:44:36.501Z,2.30
2022-10-04T11:47:26.959Z,1.10
2022-10-04T11:50:33.694Z,1.80
2022-10-04T11:54:04.339Z,1.40
2022-10-04T11:57:00.774Z,1.60
2022-10-04T12:00:14.518Z,2.00
2022-10-04T12:03:19.347Z,2.20
2022-10-04T12:06:03.768Z,1.80
2022-10-04T12:08:48.430Z,2.20
2022-10-04T12:11:25.541Z,1.70
2022-10-04T12:14:03.831Z,1.40
2022-10-04T12:16:56.924Z,4.90
2022-10-04T12:19:39.886Z,1.60
2022-10-04T12:22:29.964Z,1.20
2022-10-04T12:25:22.149Z,2.10
2022-10-04T12:28:16.293Z,1.60
2022-10-04T12:31:17.658Z,1.40
2022-10-04T12:33:54.238Z,2.40
2022-10-04T12:37:00.683Z,2.50
2022-10-04T12:40:04.745Z,2.10
2022-10-04T12:42:57.220Z,3.30
2022-10-04T12:45:48.403Z,1.60
2022-10-04T12:48:34.949Z,1.20
2022-10-04T12:51:49.065Z,2.20
2022-10-04T12:54:22.352Z,3.30
2022-10-04T12:57:40.729Z,1.60
2022-10-04T13:00:22.938Z,1.70
2022-10-04T13:03:26.690Z,1.40
2022-10-04T13:06:10.834Z,2.30
2022-10-04T13:09:04.724Z,2.00
2022-10-04T13:11:41.442Z,2.70
2022-10-04T13:14:41.297Z,2.40
2022-10-04T13:17:34.755Z,1.50
2022-10-04T13:20:26.178Z,1.60
2022-10-04T13:23:03.342Z,1.40
2022-10-04T13:26:01.214Z,1.60
2022-10-04T13:28:40.413Z,1.40
2022-10-04T13:31:33.214Z,2.00
2022-10-04T13:34:45.806Z,1.20
2022-10-04T13:37:23.301Z,1.40
2022-10-04T13:40:47.430Z,1.70
2022-10-04T13:43:57.215Z,1.10
2022-10-04T13:46:52.396Z,1.20
2022-10-04T13:49:45.129Z,2.50
2022-10-04T13:53:19.254Z,1.40
2022-10-04T13:56:37.185Z,1.70
2022-10-04T13:59:30.863Z,1.00
2022-10-04T14:02:14.113Z,2.80
2022-10-04T14:05:08.248Z,2.60
2022-10-04T14:08:05.485Z,1.40
2022-10-04T14:11:13.749Z,2.50
2022-10-04T14:14:27.304Z,1.70
2022-10-04T14:17:23.493Z,1.60
2022-10-04T14:20:23.721Z,1.30
2022-10-04T14:23:08.705Z,2.50
2022-10-04T14:26:07.599Z,3.60
2022-10-04T14:28:39.057Z,2.70
2022-10-04T14:31:48.324Z,1.90
2022-10-04T14:35:26.347Z,1.40
2022-10-04T14:38:16.021Z,1.40
2022-10-04T14:41:36.753Z,1.60
2022-10-04T14:44:50.795Z,2.90
2022-10-04T14:47:54.240Z,1.90
2022-10-04T14:50:36.273Z,1.50
2022-10-04T14:53:22.319Z,3.10
2022-10-04T14:56:08.982Z,2.70
2022-10-04T14:59:14.402Z,1.70
2022-10-04T15:02:23.037Z,1.40
2022-10-04T15:05:03.008Z,1.20
2022-10-04T15:07:37.762Z,1.90
2022-10-04T15:10:20.433Z,2.80
2022-10-04T15:13:11.461Z,2.70
2022-10-04T15:16:01.573Z,3.00
2022-10-04T15:18:39.246Z,2.30
2022-10-04T15:21:47.511Z,2.20
2022-10-04T15:24:15.771Z,4.60
2022-10-04T15:27:54.382Z,3.00
2022-10-04T15:30:56.044Z,2.40
2022-10-04T15:33:57.221Z,3.90
2022-10-04T15:36:50.822Z,3.20
2022-10-04T15:40:06.525Z,3.60
2022-10-04T15:42:39.849Z,3.50
2022-10-04T15:46:00.865Z,4.10
2022-10-04T15:49:06.624Z,2.80
2022-10-04T15:52:03.555Z,2.80
2022-10-04T15:55:16.101Z,4.10
2022-10-04T15:58:05.747Z,2.90
2022-10-04T16:00:58.571Z,3.20
2022-10-04T16:04:13.852Z,4.40
2022-10-04T16:07:10.766Z,4.00
2022-10-04T16:10:20.427Z,4.10
2022-10-04T16:13:31.835Z,2.30
2022-10-04T16:16:15.346Z,2.10
2022-10-04T16:18:57.957Z,2.70
2022-10-04T16:21:47.193Z,2.20
2022-10-04T16:24:18.515Z,2.40
2022-10-04T16:26:53.630Z,2.60
2022-10-04T16:30:02.610Z,3.00
2022-10-04T16:33:10.276Z,2.60
2022-10-04T16:35:50.336Z,3.50
2022-10-04T16:38:28.902Z,3.00
2022-10-04T16:41:16.484Z,2.60
2022-10-04T16:43:55.887Z,2.80
2022-10-04T16:46:43.266Z,2.20
2022-10-04T16:49:57.616Z,3.50
2022-10-04T16:53:00.889Z,3.80
2022-10-04T16:55:51.983Z,3.70
2022-10-04T16:58:44.332Z,3.70
2022-10-04T17:02:00.417Z,2.90
2022-10-04T17:04:38.346Z,2.50
2022-10-04T17:07:29.519Z,2.80
2022-10-04T17:10:41.749Z,2.90
2022-10-04T17:13:39.277Z,3.70
2022-10-04T17:16:48.907Z,3.80
2022-10-04T17:19:47.090Z,3.20
2022-10-04T17:23:06.454Z,2.60
2022-10-04T17:25:43.377Z,3.90
2022-10-04T17:28:34.356Z,2.80
2022-10-04T17:31:26.217Z,4.20
2022-10-04T17:34:17.631Z,5.30
2022-10-04T17:36:55.126Z,3.70
2022-10-04T17:39:40.805Z,3.50
2022-10-04T17:42:40.354Z,3.70
2022-10-04T17:46:13.391Z,3.10
2022-10-04T17:49:19.145Z,4.70
2022-10-04T17:52:09.785Z,3.50
2022-10-04T17:54:56.854Z,3.10
2022-10-04T17:57:43.789Z,4.20
2022-10-04T18:00:16.676Z,3.20
2022-10-04T18:03:08.206Z,2.30
2022-10-04T18:05:42.466Z,3.00
2022-10-04T18:08:29.014Z,3.30
2022-10-04T18:11:04.153Z,2.70
2022-10-04T18:14:06.117Z,2.40
2022-10-04T18:16:52.700Z,2.50
2022-10-04T18:19:51.305Z,4.20
2022-10-04T18:22:26.583Z,3.00
2022-10-04T18:25:27.094Z,4.40
2022-10-04T18:28:09.939Z,3.00
2022-10-04T18:30:51.715Z,3.70
2022-10-04T18:33:29.692Z,3.50
2022-10-04T18:36:17.137Z,2.70
2022-10-04T18:39:03.731Z,2.90
2022-10-04T18:41:50.661Z,3.00
2022-10-04T18:44:44.510Z,2.80
2022-10-04T18:47:41.435Z,3.00
2022-10-04T18:50:21.429Z,2.90
2022-10-04T18:53:11.292Z,2.90
2022-10-04T18:56:02.203Z,3.50
2022-10-04T18:59:10.006Z,4.30
2022-10-04T19:02:03.295Z,3.40
2022-10-04T19:04:46.130Z,3.20
2022-10-04T19:07:34.952Z,3.60
2022-10-04T19:10:49.090Z,4.20
2022-10-04T19:13:38.582Z,3.90
2022-10-04T19:18:49.777Z,3.40
2022-10-04T19:21:39.265Z,5.20
2022-10-04T19:27:15.115Z,4.70
2022-10-04T19:29:58.246Z,3.80
2022-10-04T19:32:52.856Z,4.60
2022-10-04T19:36:06.172Z,5.30
2022-10-04T19:38:43.664Z,4.80
2022-10-04T19:41:35.167Z,4.40
2022-10-04T19:44:23.518Z,4.80
2022-10-04T19:47:29.142Z,4.90
2022-10-04T19:50:29.442Z,6.10
2022-10-04T19:53:39.748Z,4.80
2022-10-04T19:56:20.885Z,6.80
2022-10-04T19:59:36.843Z,6.60
2022-10-04T20:02:13.840Z,11.60
2022-10-04T20:04:43.413Z,8.80
2022-10-04T20:07:15.495Z,11.10
2022-10-04T20:09:45.639Z,8.90
2022-10-04T20:12:35.775Z,10.40
2022-10-04T20:15:42.971Z,7.30
2022-10-04T20:18:34.184Z,6.70
2022-10-04T20:21:10.657Z,8.20
2022-10-04T20:23:41.818Z,6.90
2022-10-04T20:26:54.834Z,9.30
2022-10-04T20:29:57.728Z,7.90
2022-10-04T20:32:36.572Z,7.40
2022-10-04T20:35:53.478Z,7.40
2022-10-04T20:39:00.277Z,7.10
2022-10-04T20:41:28.605Z,6.90
2022-10-04T20:44:02.353Z,6.50
2022-10-04T20:46:40.223Z,6.60
2022-10-04T20:49:17.493Z,7.20
2022-10-04T20:51:51.326Z,6.30
2022-10-04T20:54:22.760Z,6.80
2022-10-04T20:56:51.765Z,6.70
2022-10-04T20:59:22.278Z,7.40
2022-10-04T21:02:12.074Z,6.30
2022-10-04T21:04:50.269Z,5.80
2022-10-04T21:07:27.287Z,6.00
2022-10-04T21:10:15.421Z,6.50
2022-10-04T21:12:44.136Z,7.20
2022-10-04T21:15:19.053Z,6.60
2022-10-04T21:18:12.283Z,7.00
2022-10-04T21:20:53.035Z,7.20
2022-10-04T21:23:35.427Z,6.50
2022-10-04T21:26:25.511Z,7.70
2022-10-04T21:28:58.712Z,6.80
2022-10-04T21:31:27.161Z,6.30
2022-10-04T21:33:55.506Z,8.50
2022-10-04T21:36:23.825Z,8.60
2022-10-04T21:38:54.463Z,8.20
2022-10-04T21:41:22.813Z,6.90
2022-10-04T21:43:52.257Z,6.80
2022-10-04T21:48:49.720Z,6.60
2022-10-04T21:51:18.196Z,7.30
2022-10-04T21:53:47.525Z,7.90
2022-10-04T21:56:15.962Z,7.10
2022-10-04T21:58:44.576Z,7.40
2022-10-04T22:01:13.505Z,7.00
2022-10-04T22:03:42.053Z,6.80
2022-10-04T22:06:10.717Z,8.10
2022-10-04T22:08:39.461Z,6.10
2022-10-04T22:11:07.886Z,7.90
2022-10-04T22:13:36.829Z,6.60
2022-10-04T22:16:06.225Z,5.70
2022-10-04T22:18:34.858Z,5.00
2022-10-04T22:21:03.752Z,5.10
2022-10-04T22:23:39.115Z,4.60
2022-10-04T22:26:33.541Z,4.80
2022-10-04T22:29:01.985Z,3.30
2022-10-04T22:31:30.586Z,4.70
2022-10-04T22:33:59.233Z,4.30
2022-10-04T22:36:38.378Z,3.70
2022-10-04T22:39:09.605Z,4.00
2022-10-04T22:41:52.501Z,3.80
2022-10-04T22:44:26.237Z,3.10
2022-10-04T22:47:01.489Z,5.10
2022-10-04T22:49:41.360Z,3.10
2022-10-04T22:52:22.909Z,3.40
2022-10-04T22:54:58.141Z,3.40
2022-10-04T22:57:27.540Z,3.00
2022-10-04T22:59:55.941Z,2.50
2022-10-04T23:02:30.317Z,3.30
2022-10-04T23:05:15.675Z,3.80
2022-10-04T23:07:45.996Z,3.40
2022-10-04T23:10:18.422Z,2.90
2022-10-04T23:12:49.431Z,3.40
2022-10-04T23:15:21.104Z,3.10
2022-10-04T23:17:56.144Z,5.20
2022-10-04T23:20:24.845Z,3.10
2022-10-04T23:22:54.724Z,3.80
2022-10-04T23:25:30.700Z,5.30
2022-10-04T23:28:03.654Z,7.20
2022-10-04T23:30:32.083Z,3.20
2022-10-04T23:33:01.413Z,3.10
2022-10-04T23:35:34.307Z,2.80
2022-10-04T23:38:07.435Z,3.50
2022-10-04T23:40:35.821Z,3.40
2022-10-04T23:43:05.837Z,3.10
2022-10-04T23:45:35.622Z,3.10
2022-10-04T23:48:08.854Z,2.80
2022-10-04T23:50:39.284Z,3.40
2022-10-04T23:53:27.205Z,3.00
2022-10-04T23:55:59.064Z,4.90
2022-10-04T23:58:34.320Z,3.20
